createdAt,value
2023-01-04T00:03:58.954Z,16.67
2023-01-04T00:06:26.999Z,19.43
2023-01-04T00:08:54.657Z,17.75
2023-01-04T00:11:24.295Z,20.67
2023-01-04T00:13:58.907Z,23.05
2023-01-04T00:16:28.810Z,15.93
2023-01-04T00:18:58.100Z,97.30
2023-01-04T00:21:29.906Z,135.15
2023-01-04T00:24:00.751Z,159.82
2023-01-04T00:26:32.279Z,159.55
2023-01-04T00:29:05.483Z,163.55
2023-01-04T00:31:34.599Z,96.65
2023-01-04T00:34:05.121Z,77.05
2023-01-04T00:36:34.241Z,131.43
2023-01-04T00:39:09.073Z,134.85
2023-01-04T00:42:02.190Z,123.80
2023-01-04T00:44:31.942Z,84.68
2023-01-04T00:47:02.485Z,67.35
2023-01-04T00:49:31.155Z,57.90
2023-01-04T00:51:59.251Z,54.10
2023-01-04T00:54:27.127Z,91.25
2023-01-04T00:56:54.826Z,100.45
2023-01-04T00:59:23.293Z,117.57
2023-01-04T01:04:22.504Z,66.97
2023-01-04T01:06:51.847Z,78.43
2023-01-04T01:09:22.919Z,168.07
2023-01-04T01:11:53.236Z,144.02
2023-01-04T01:14:25.202Z,206.52
2023-01-04T01:16:55.749Z,101.25
2023-01-04T01:19:29.744Z,104.22
2023-01-04T01:21:58.465Z,84.75
2023-01-04T01:24:27.507Z,67.35
2023-01-04T01:26:55.876Z,64.82
2023-01-04T01:29:23.693Z,80.78
2023-01-04T01:31:51.197Z,119.57
2023-01-04T01:34:18.666Z,139.05
2023-01-04T01:36:46.202Z,190.95
2023-01-04T01:39:13.667Z,136.13
2023-01-04T01:41:41.132Z,130.82
2023-01-04T01:44:42.772Z,152.02
2023-01-04T01:47:23.048Z,155.05
2023-01-04T01:49:54.261Z,141.35
2023-01-04T01:52:27.792Z,142.23
2023-01-04T01:55:04.700Z,127.03
2023-01-04T01:57:37.080Z,124.63
2023-01-04T02:00:13.106Z,131.95
2023-01-04T02:02:59.643Z,222.02
2023-01-04T02:05:29.506Z,202.65
2023-01-04T02:07:57.292Z,160.32
2023-01-04T02:10:25.294Z,139.17
2023-01-04T02:12:52.947Z,144.63
2023-01-04T02:15:26.348Z,164.00
2023-01-04T02:18:17.972Z,142.60
2023-01-04T02:21:01.847Z,116.47
2023-01-04T02:24:28.455Z,103.97
2023-01-04T02:27:19.006Z,143.60
2023-01-04T02:29:56.313Z,125.45
2023-01-04T02:32:41.015Z,153.80
2023-01-04T02:35:40.387Z,170.00
2023-01-04T02:38:36.472Z,123.28
2023-01-04T02:41:35.115Z,133.82
2023-01-04T02:44:35.344Z,172.48
2023-01-04T02:47:11.635Z,233.38
2023-01-04T02:50:04.024Z,211.77
2023-01-04T02:52:33.171Z,221.35
2023-01-04T02:55:07.912Z,219.10
2023-01-04T02:58:07.754Z,251.73
2023-01-04T03:01:08.142Z,265.70
2023-01-04T03:04:28.203Z,144.65
2023-01-04T03:07:06.441Z,193.93
2023-01-04T03:09:42.456Z,158.45
2023-01-04T03:12:31.508Z,126.25
2023-01-04T03:15:17.110Z,99.93
2023-01-04T03:17:57.833Z,70.68
2023-01-04T03:20:31.076Z,67.40
2023-01-04T03:23:35.632Z,97.65
2023-01-04T03:26:28.594Z,220.10
2023-01-04T03:29:27.285Z,139.30
2023-01-04T03:32:55.957Z,84.93
2023-01-04T03:35:38.959Z,87.65
2023-01-04T03:38:35.197Z,80.75
2023-01-04T03:41:45.815Z,78.18
2023-01-04T03:45:05.903Z,76.22
2023-01-04T03:48:21.576Z,68.90
2023-01-04T03:50:58.695Z,72.07
2023-01-04T03:53:28.454Z,63.65
2023-01-04T03:55:58.788Z,46.85
2023-01-04T03:58:27.003Z,45.97
2023-01-04T04:01:03.682Z,42.88
2023-01-04T04:03:50.778Z,77.25
2023-01-04T04:06:36.852Z,120.35
2023-01-04T04:09:04.601Z,102.93
2023-01-04T04:11:32.829Z,87.68
2023-01-04T04:14:00.869Z,55.80
2023-01-04T04:16:28.978Z,39.25
2023-01-04T04:18:56.969Z,35.88
2023-01-04T04:21:24.395Z,33.75
2023-01-04T04:23:54.287Z,28.05
2023-01-04T04:26:21.819Z,30.08
2023-01-04T04:28:49.267Z,35.78
2023-01-04T04:31:17.292Z,28.70
2023-01-04T04:33:44.708Z,34.58
2023-01-04T04:36:12.309Z,33.17
2023-01-04T04:38:39.886Z,28.00
2023-01-04T04:41:31.727Z,27.52
2023-01-04T04:43:59.199Z,28.30
2023-01-04T04:46:27.026Z,27.85
2023-01-04T04:48:54.709Z,35.05
2023-01-04T04:51:22.167Z,33.83
2023-01-04T04:53:49.684Z,53.08
2023-01-04T04:56:17.114Z,90.43
2023-01-04T04:58:44.518Z,94.20
2023-01-04T05:01:12.254Z,89.28
2023-01-04T05:03:39.955Z,108.75
2023-01-04T05:06:07.657Z,113.50
2023-01-04T05:08:35.901Z,112.65
2023-01-04T05:11:08.989Z,122.40
2023-01-04T05:13:37.336Z,111.63
2023-01-04T05:16:06.571Z,118.95
2023-01-04T05:18:35.184Z,116.80
2023-01-04T05:23:30.296Z,119.75
2023-01-04T05:26:01.998Z,122.18
2023-01-04T05:28:29.690Z,116.13
2023-01-04T05:30:57.257Z,117.80
2023-01-04T05:33:31.399Z,113.00
2023-01-04T05:36:04.297Z,102.63
2023-01-04T05:38:31.885Z,100.43
2023-01-04T05:40:59.445Z,105.13
2023-01-04T05:43:26.955Z,107.88
2023-01-04T05:45:56.585Z,143.30
2023-01-04T05:48:24.943Z,118.50
2023-01-04T05:50:53.819Z,113.22
2023-01-04T05:53:21.278Z,120.85
2023-01-04T05:55:49.251Z,116.70
2023-01-04T05:58:16.880Z,120.75
2023-01-04T06:00:44.432Z,122.95
2023-01-04T06:03:11.920Z,117.72
2023-01-04T06:05:39.883Z,104.72
2023-01-04T06:08:07.902Z,132.85
2023-01-04T06:10:35.327Z,124.47
2023-01-04T06:13:02.695Z,130.75
2023-01-04T06:15:30.244Z,153.88
2023-01-04T06:17:57.639Z,135.48
2023-01-04T06:20:25.226Z,137.48
2023-01-04T06:22:52.596Z,127.65
2023-01-04T06:25:20.056Z,118.15
2023-01-04T06:27:47.520Z,109.38
2023-01-04T06:30:15.142Z,113.10
2023-01-04T06:32:43.454Z,135.93
2023-01-04T06:35:10.900Z,164.45
2023-01-04T06:37:38.408Z,147.07
2023-01-04T06:40:06.847Z,148.30
2023-01-04T06:42:46.506Z,135.45
2023-01-04T06:45:15.769Z,136.75
2023-01-04T06:47:44.116Z,136.43
2023-01-04T06:50:12.033Z,116.75
2023-01-04T06:52:39.715Z,112.15
2023-01-04T06:55:11.342Z,117.53
2023-01-04T06:57:38.812Z,129.15
2023-01-04T07:00:09.083Z,142.70
2023-01-04T07:02:36.976Z,148.00
2023-01-04T07:05:05.273Z,115.43
2023-01-04T07:07:35.418Z,77.43
2023-01-04T07:10:09.542Z,54.75
2023-01-04T07:12:38.822Z,45.10
2023-01-04T07:15:38.593Z,44.75
2023-01-04T07:20:21.800Z,48.20
2023-01-04T07:22:49.253Z,66.85
2023-01-04T07:25:16.911Z,54.35
2023-01-04T07:27:44.417Z,52.13
2023-01-04T07:30:12.661Z,50.42
2023-01-04T07:32:40.027Z,46.55
2023-01-04T07:35:07.984Z,40.25
2023-01-04T07:37:35.389Z,39.88
2023-01-04T07:40:03.937Z,41.95
2023-01-04T07:44:58.839Z,43.37
2023-01-04T07:47:28.505Z,44.40
2023-01-04T07:49:55.963Z,41.13
2023-01-04T07:52:23.686Z,47.17
2023-01-04T07:54:51.080Z,41.67
2023-01-04T07:57:18.476Z,45.90
2023-01-04T07:59:45.947Z,53.50
2023-01-04T08:02:13.787Z,57.70
2023-01-04T08:04:41.453Z,47.35
2023-01-04T08:07:08.944Z,46.67
2023-01-04T08:09:36.332Z,47.75
2023-01-04T08:12:04.484Z,42.30
2023-01-04T08:14:31.956Z,35.33
2023-01-04T08:16:59.409Z,36.38
2023-01-04T08:19:27.244Z,32.42
2023-01-04T08:21:54.730Z,30.75
2023-01-04T08:24:22.233Z,32.08
2023-01-04T08:26:49.619Z,33.15
2023-01-04T08:29:17.130Z,34.35
2023-01-04T08:31:44.728Z,28.92
2023-01-04T08:34:12.206Z,27.90
2023-01-04T08:36:53.225Z,34.95
2023-01-04T08:39:23.735Z,32.13
2023-01-04T08:42:04.219Z,31.95
2023-01-04T08:44:34.570Z,29.27
2023-01-04T08:47:02.272Z,27.20
2023-01-04T08:49:29.833Z,29.83
2023-01-04T08:51:57.314Z,28.80
2023-01-04T08:54:24.745Z,31.50
2023-01-04T08:56:52.191Z,35.05
2023-01-04T08:59:19.594Z,31.25
2023-01-04T09:01:47.228Z,28.90
2023-01-04T09:04:14.903Z,36.75
2023-01-04T09:06:43.183Z,31.87
2023-01-04T09:09:10.647Z,30.23
2023-01-04T09:11:39.025Z,25.92
2023-01-04T09:14:09.472Z,30.88
2023-01-04T09:16:38.429Z,26.95
2023-01-04T09:19:06.530Z,28.70
2023-01-04T09:21:34.387Z,33.65
2023-01-04T09:24:02.294Z,31.13
2023-01-04T09:26:32.342Z,28.17
2023-01-04T09:28:59.887Z,29.95
2023-01-04T09:31:28.869Z,28.48
2023-01-04T09:34:15.806Z,38.00
2023-01-04T09:36:46.645Z,32.38
2023-01-04T09:39:23.978Z,32.85
2023-01-04T09:41:59.356Z,29.60
2023-01-04T09:47:59.125Z,27.65
2023-01-04T09:51:01.433Z,31.42
2023-01-04T09:53:56.276Z,26.60
2023-01-04T09:56:32.959Z,24.33
2023-01-04T09:59:07.660Z,24.88
2023-01-04T10:01:46.831Z,29.25
2023-01-04T10:04:44.499Z,26.02
2023-01-04T10:07:30.960Z,25.10
2023-01-04T10:10:00.169Z,25.42
2023-01-04T10:13:08.694Z,30.27
2023-01-04T10:15:47.953Z,43.03
2023-01-04T10:19:23.580Z,49.40
2023-01-04T10:21:32.912Z,32.03
2023-01-04T10:24:20.175Z,32.42
2023-01-04T10:26:50.471Z,31.35
2023-01-04T10:29:29.954Z,25.23
2023-01-04T10:32:15.407Z,30.50
2023-01-04T10:34:46.779Z,41.35
2023-01-04T10:37:49.945Z,29.73
2023-01-04T10:40:18.695Z,21.38
2023-01-04T10:43:08.032Z,31.58
2023-01-04T10:46:05.354Z,25.08
2023-01-04T10:48:58.129Z,26.50
2023-01-04T10:51:42.715Z,12.00
2023-01-04T10:54:39.652Z,13.10
2023-01-04T10:57:23.307Z,7.82
2023-01-04T11:00:07.393Z,9.27
2023-01-04T11:02:52.520Z,12.07
2023-01-04T11:05:37.178Z,17.75
2023-01-04T11:08:17.072Z,15.50
2023-01-04T11:10:57.328Z,10.43
2023-01-04T11:13:25.246Z,14.02
2023-01-04T11:15:53.096Z,6.65
2023-01-04T11:18:20.785Z,22.08
2023-01-04T11:20:48.228Z,43.78
2023-01-04T11:23:18.070Z,36.90
2023-01-04T11:25:56.976Z,13.50
2023-01-04T11:28:36.197Z,47.92
2023-01-04T11:31:16.691Z,27.50
2023-01-04T11:34:03.970Z,22.08
2023-01-04T11:36:31.305Z,27.10
2023-01-04T11:38:59.525Z,21.38
2023-01-04T11:41:27.904Z,7.78
2023-01-04T11:46:34.824Z,7.23
2023-01-04T11:49:02.194Z,9.40
2023-01-04T11:51:29.780Z,10.43
2023-01-04T11:54:05.564Z,9.83
2023-01-04T11:56:35.843Z,9.20
2023-01-04T11:59:08.322Z,7.40
2023-01-04T12:01:41.360Z,7.97
2023-01-04T12:04:18.581Z,7.15
2023-01-04T12:07:17.274Z,10.00
2023-01-04T12:09:44.872Z,6.28
2023-01-04T12:12:15.869Z,7.00
2023-01-04T12:14:49.610Z,8.98
2023-01-04T12:17:29.442Z,7.47
2023-01-04T12:20:01.515Z,6.55
2023-01-04T12:22:36.173Z,7.03
2023-01-04T12:25:35.082Z,5.85
2023-01-04T12:28:02.643Z,9.18
2023-01-04T12:30:38.816Z,10.00
2023-01-04T12:33:30.932Z,8.25
2023-01-04T12:36:22.226Z,8.23
2023-01-04T12:38:52.380Z,8.05
2023-01-04T12:41:23.226Z,28.83
2023-01-04T12:43:53.158Z,8.80
2023-01-04T12:46:48.274Z,7.38
2023-01-04T12:49:27.953Z,9.88
2023-01-04T12:52:30.503Z,6.82
2023-01-04T12:55:04.616Z,14.07
2023-01-04T12:57:38.495Z,50.90
2023-01-04T13:00:13.755Z,20.55
2023-01-04T13:03:14.752Z,9.82
2023-01-04T13:05:58.357Z,17.08
2023-01-04T13:08:26.668Z,13.13
2023-01-04T13:10:56.952Z,13.73
2023-01-04T13:13:31.998Z,12.82
2023-01-04T13:16:19.785Z,43.78
2023-01-04T13:18:59.674Z,8.52
2023-01-04T13:21:39.830Z,5.20
2023-01-04T13:24:28.658Z,7.93
2023-01-04T13:26:57.219Z,7.65
2023-01-04T13:29:31.910Z,7.85
2023-01-04T13:32:11.858Z,4.25
2023-01-04T13:34:46.175Z,12.52
2023-01-04T13:37:19.637Z,3.53
2023-01-04T13:39:51.678Z,6.20
2023-01-04T13:42:39.943Z,3.53
2023-01-04T13:48:01.483Z,12.95
2023-01-04T13:50:49.617Z,27.63
2023-01-04T13:56:02.138Z,15.93
2023-01-04T13:58:33.162Z,4.93
2023-01-04T14:01:15.294Z,7.18
2023-01-04T14:03:59.224Z,18.45
2023-01-04T14:06:41.784Z,54.38
2023-01-04T14:09:13.420Z,57.47
2023-01-04T14:12:08.274Z,25.40
2023-01-04T14:14:58.699Z,22.02
2023-01-04T14:17:49.677Z,33.05
2023-01-04T14:20:20.152Z,38.92
2023-01-04T14:22:47.436Z,65.05
2023-01-04T14:25:33.790Z,96.15
2023-01-04T14:28:19.804Z,71.38
2023-01-04T14:30:53.981Z,44.03
2023-01-04T14:33:36.274Z,31.17
2023-01-04T14:36:06.441Z,38.20
2023-01-04T14:38:41.469Z,40.20
2023-01-04T14:41:31.475Z,59.15
2023-01-04T14:44:14.879Z,50.20
2023-01-04T14:46:47.136Z,53.97
2023-01-04T14:49:16.200Z,49.85
2023-01-04T14:52:02.047Z,66.32
2023-01-04T14:54:31.854Z,65.20
2023-01-04T14:56:59.911Z,68.88
2023-01-04T14:59:28.617Z,60.85
2023-01-04T15:01:58.014Z,92.13
2023-01-04T15:04:25.749Z,111.00
2023-01-04T15:07:00.463Z,134.03
2023-01-04T15:09:29.192Z,83.45
2023-01-04T15:11:57.214Z,74.15
2023-01-04T15:14:24.991Z,62.50
2023-01-04T15:16:52.408Z,87.22
2023-01-04T15:19:19.862Z,107.18
2023-01-04T15:21:47.241Z,101.95
2023-01-04T15:24:14.686Z,66.40
2023-01-04T15:26:43.415Z,67.25
2023-01-04T15:29:10.953Z,72.60
2023-01-04T15:31:40.480Z,75.30
2023-01-04T15:34:10.167Z,64.75
2023-01-04T15:36:40.587Z,71.00
2023-01-04T15:39:15.748Z,56.55
2023-01-04T15:42:21.423Z,52.83
2023-01-04T15:44:48.858Z,48.78
2023-01-04T15:47:16.316Z,49.88
2023-01-04T15:49:43.697Z,48.15
2023-01-04T15:52:11.186Z,48.40
2023-01-04T15:54:38.587Z,49.80
2023-01-04T15:57:06.188Z,73.68
2023-01-04T15:59:33.777Z,46.10
2023-01-04T16:02:01.230Z,47.13
2023-01-04T16:04:29.495Z,99.28
2023-01-04T16:06:56.929Z,84.47
2023-01-04T16:09:24.901Z,66.85
2023-01-04T16:12:12.727Z,110.15
2023-01-04T16:14:40.237Z,134.00
2023-01-04T16:17:07.660Z,110.75
2023-01-04T16:19:35.105Z,146.47
2023-01-04T16:22:02.563Z,130.05
2023-01-04T16:25:08.636Z,109.68
2023-01-04T16:27:17.626Z,140.88
2023-01-04T16:29:45.365Z,233.43
2023-01-04T16:32:12.817Z,173.73
2023-01-04T16:34:40.246Z,191.70
2023-01-04T16:37:07.724Z,177.15
2023-01-04T16:40:05.308Z,155.97
2023-01-04T16:42:22.614Z,145.67
2023-01-04T16:44:50.079Z,131.52
2023-01-04T16:47:17.707Z,167.02
2023-01-04T16:49:45.388Z,172.05
2023-01-04T16:52:13.103Z,177.63
2023-01-04T16:54:40.604Z,161.65
2023-01-04T16:57:07.991Z,156.93
2023-01-04T16:59:35.478Z,135.45
2023-01-04T17:02:02.992Z,132.20
2023-01-04T17:04:30.601Z,123.85
2023-01-04T17:06:58.499Z,128.65
2023-01-04T17:09:25.994Z,101.05
2023-01-04T17:12:44.937Z,131.02
2023-01-04T17:15:07.956Z,78.45
2023-01-04T17:17:38.514Z,74.45
2023-01-04T17:20:06.944Z,64.18
2023-01-04T17:22:35.252Z,57.22
2023-01-04T17:25:04.199Z,50.88
2023-01-04T17:27:31.622Z,58.85
2023-01-04T17:29:59.883Z,43.25
2023-01-04T17:32:27.349Z,41.30
2023-01-04T17:34:54.909Z,64.10
2023-01-04T17:37:22.319Z,51.87
2023-01-04T17:39:50.124Z,199.00
2023-01-04T17:42:17.650Z,247.40
2023-01-04T17:44:46.060Z,400.50
2023-01-04T17:47:13.464Z,326.70
2023-01-04T17:49:41.177Z,335.70
2023-01-04T17:52:09.144Z,371.98
2023-01-04T17:54:37.287Z,326.42
2023-01-04T17:57:04.724Z,354.88
2023-01-04T17:59:32.147Z,341.05
2023-01-04T18:01:59.643Z,311.02
2023-01-04T18:04:27.093Z,320.27
2023-01-04T18:06:54.641Z,302.83
2023-01-04T18:09:24.517Z,322.77
2023-01-04T18:11:52.208Z,356.17
2023-01-04T18:14:19.696Z,321.10
2023-01-04T18:16:56.922Z,324.23
2023-01-04T18:19:30.274Z,306.57
2023-01-04T18:21:58.791Z,308.00
2023-01-04T18:24:42.164Z,289.08
2023-01-04T18:27:28.995Z,281.15
2023-01-04T18:29:56.856Z,325.02
2023-01-04T18:32:26.826Z,289.85
2023-01-04T18:34:54.337Z,318.27
2023-01-04T18:37:22.075Z,318.73
2023-01-04T18:39:49.725Z,358.52
2023-01-04T18:42:17.667Z,431.45
2023-01-04T18:44:48.984Z,369.95
2023-01-04T18:47:20.704Z,313.58
2023-01-04T18:49:51.478Z,277.85
2023-01-04T18:52:19.965Z,292.15
2023-01-04T18:54:48.505Z,322.55
2023-01-04T18:57:16.373Z,341.90
2023-01-04T18:59:43.782Z,315.80
2023-01-04T19:02:18.780Z,301.27
2023-01-04T19:04:46.729Z,276.15
2023-01-04T19:07:14.814Z,248.65
2023-01-04T19:09:42.754Z,216.02
2023-01-04T19:12:10.666Z,259.73
2023-01-04T19:14:38.126Z,199.43
2023-01-04T19:17:05.674Z,256.90
2023-01-04T19:19:34.216Z,280.48
2023-01-04T19:24:29.043Z,482.27
2023-01-04T19:27:02.605Z,540.90
2023-01-04T19:29:31.591Z,526.17
2023-01-04T19:31:59.117Z,535.83
2023-01-04T19:34:26.534Z,587.00
2023-01-04T19:36:53.979Z,554.15
2023-01-04T19:39:21.418Z,533.92
2023-01-04T19:41:48.886Z,528.30
2023-01-04T19:44:17.016Z,536.38
2023-01-04T19:46:44.522Z,522.35
2023-01-04T19:49:15.221Z,519.88
2023-01-04T19:51:45.547Z,494.27
2023-01-04T19:54:14.363Z,501.17
2023-01-04T19:56:42.101Z,474.65
2023-01-04T19:59:10.298Z,483.53
2023-01-04T20:01:38.119Z,504.13
2023-01-04T20:04:05.797Z,550.80
2023-01-04T20:06:33.770Z,540.67
2023-01-04T20:09:01.303Z,486.33
2023-01-04T20:11:28.787Z,494.63
2023-01-04T20:13:56.226Z,458.80
2023-01-04T20:16:23.673Z,468.83
2023-01-04T20:18:55.882Z,447.10
2023-01-04T20:21:23.852Z,412.63
2023-01-04T20:23:51.405Z,413.35
2023-01-04T20:26:19.692Z,451.92
2023-01-04T20:28:48.573Z,526.80
2023-01-04T20:31:18.905Z,562.63
2023-01-04T20:33:47.756Z,597.40
2023-01-04T20:36:19.718Z,546.72
2023-01-04T20:38:48.780Z,528.17
2023-01-04T20:41:20.475Z,474.30
2023-01-04T20:43:49.266Z,306.45
2023-01-04T20:46:24.364Z,230.55
2023-01-04T20:48:51.962Z,212.15
2023-01-04T20:51:24.652Z,162.32
2023-01-04T20:53:52.855Z,153.43
2023-01-04T20:56:27.150Z,154.75
2023-01-04T20:58:55.690Z,131.50
2023-01-04T21:01:23.653Z,176.93
2023-01-04T21:03:51.240Z,192.10
2023-01-04T21:06:20.051Z,194.30
2023-01-04T21:08:47.597Z,237.70
2023-01-04T21:11:15.367Z,269.30
2023-01-04T21:13:42.790Z,231.38
2023-01-04T21:16:12.005Z,215.02
2023-01-04T21:18:39.603Z,235.23
2023-01-04T21:21:14.613Z,194.98
2023-01-04T21:23:44.333Z,224.30
2023-01-04T21:26:16.794Z,262.80
2023-01-04T21:28:46.129Z,174.02
2023-01-04T21:31:22.086Z,184.70
2023-01-04T21:33:51.272Z,172.57
2023-01-04T21:36:22.841Z,137.05
2023-01-04T21:38:52.718Z,129.32
2023-01-04T21:41:24.825Z,148.27
2023-01-04T21:43:56.053Z,167.32
2023-01-04T21:46:25.110Z,181.07
2023-01-04T21:49:01.667Z,243.05
2023-01-04T21:51:30.315Z,250.93
2023-01-04T21:53:58.388Z,211.48
2023-01-04T21:56:25.868Z,346.58
2023-01-04T21:58:53.544Z,230.20
2023-01-04T22:01:32.459Z,320.17
2023-01-04T22:04:03.794Z,333.63
2023-01-04T22:06:33.153Z,340.77
2023-01-04T22:09:00.800Z,383.73
2023-01-04T22:11:28.206Z,383.33
2023-01-04T22:13:56.120Z,387.88
2023-01-04T22:16:25.236Z,242.18
2023-01-04T22:18:52.796Z,196.23
2023-01-04T22:21:25.289Z,84.30
2023-01-04T22:23:54.294Z,92.47
2023-01-04T22:26:21.671Z,62.30
2023-01-04T22:28:49.179Z,64.93
2023-01-04T22:31:16.709Z,47.55
2023-01-04T22:33:44.334Z,53.10
2023-01-04T22:36:21.743Z,45.97
2023-01-04T22:38:55.088Z,48.85
2023-01-04T22:41:26.011Z,57.80
2023-01-04T22:44:03.543Z,47.08
2023-01-04T22:46:33.673Z,48.28
2023-01-04T22:49:02.020Z,63.67
2023-01-04T22:51:31.192Z,65.45
2023-01-04T22:54:01.863Z,57.30
2023-01-04T22:56:30.124Z,63.03
2023-01-04T22:58:58.561Z,51.60
2023-01-04T23:01:30.531Z,49.45
2023-01-04T23:04:00.569Z,78.68
2023-01-04T23:06:29.927Z,127.15
2023-01-04T23:09:02.778Z,76.55
2023-01-04T23:11:33.000Z,78.78
2023-01-04T23:14:03.602Z,73.53
2023-01-04T23:16:33.370Z,230.18
2023-01-04T23:19:02.560Z,108.82
2023-01-04T23:21:31.324Z,119.88
2023-01-04T23:23:59.765Z,144.82
2023-01-04T23:26:29.536Z,391.05
2023-01-04T23:28:57.630Z,186.68
2023-01-04T23:31:29.446Z,162.23
2023-01-04T23:34:01.054Z,57.78
2023-01-04T23:36:35.268Z,44.00
2023-01-04T23:39:07.211Z,50.47
2023-01-04T23:41:47.680Z,53.15
2023-01-04T23:44:25.340Z,48.47
2023-01-04T23:46:59.827Z,46.85
2023-01-04T23:49:30.070Z,75.78
2023-01-04T23:51:58.368Z,249.13
2023-01-04T23:54:26.893Z,227.38
2023-01-04T23:56:55.221Z,155.18
2023-01-04T23:59:24.240Z,203.75
